Terminal Aerodrome Forecast
Issued by NWS

Home | Current Version | Previous Version | Text Only | Print | Product List | Glossary On
Versions: 1 2 3 4 5 6 7 8 9 10 11 12 13
689
FTPA31 PHFO 042332
TAFSTU
TAF
NSTU 042332Z 0500/0524 15005KT P6SM SCT015 BKN040 BKN200
     FM050800 VRB03KT P6SM VCSH SCT015 SCT040 BKN120=

USA.gov is the U.S. government's official web portal to all federal, state and local government web resources and services.